Time;durP1;ratioP1;P1;durP2;ratioP2;P2;SDS_P1;SDS_P2;PMS_P1;PMS_P2;Temp;Humidity;BMP_temperature;BMP_pressure;BME280_temperature;BME280_humidity;BME280_pressure;Samples;Min_cycle;Max_cycle;Signal;HPM_P1;HPM_P2
2022/09/27 00:00:28;;;;;;;;;;;;;;;11.07;77.71;97070.81;4935101;29;19922;-65
2022/09/27 00:02:55;;;;;;;;;;;;;;;11.06;77.72;97071.88;4933959;29;19922;-65
2022/09/27 00:05:22;;;;;;;;;;;;;;;11.07;77.85;97072.66;4933974;29;19923;-65
2022/09/27 00:07:48;;;;;;;;;;;;;;;11.07;77.89;97068.19;4917679;29;19923;-65
2022/09/27 00:10:15;;;;;;;;;;;;;;;11.08;77.74;97072.41;4935187;29;19931;-65
2022/09/27 00:12:41;;;;;;;;;;;;;;;11.08;77.92;97068.97;4935036;29;19999;-65
2022/09/27 00:15:08;;;;;;;;;;;;;;;11.09;77.93;97067.94;4933956;29;19923;-65
2022/09/27 00:17:36;;;;;;;;;;;;;;;11.08;77.47;97074.25;4934374;29;19970;-65
2022/09/27 00:20:04;;;;;;;;;;;;;;;11.06;77.29;97076.34;4936133;29;20315;-65
2022/09/27 00:22:31;;;;;;;;;;;;;;;11.06;77.67;97076.34;4937226;29;19929;-65
2022/09/27 00:24:57;;;;;;;;;;;;;;;11.06;77.15;97073.69;4937503;29;19931;-65
2022/09/27 00:27:24;;;;;;;;;;;;;;;11.03;77.07;97068.91;4937966;29;19987;-65
2022/09/27 00:29:51;;;;;;;;;;;;;;;11.02;77.15;97077.84;4938459;29;19922;-65
2022/09/27 00:32:18;;;;;;;;;;;;;;;11.00;77.08;97075.44;4938258;29;20302;-65
2022/09/27 00:34:44;;;;;;;;;;;;;;;11.00;77.10;97072.00;4938233;29;19923;-65
2022/09/27 00:37:11;;;;;;;;;;;;;;;10.97;76.76;97065.34;4936476;29;19923;-65
2022/09/27 00:39:41;;;;;;;;;;;;;;;10.98;77.04;97071.44;4937236;29;19927;-65
2022/09/27 00:42:12;;;;;;;;;;;;;;;10.98;76.70;97066.13;4937027;29;19953;-65
2022/09/27 00:44:38;;;;;;;;;;;;;;;10.98;76.86;97072.25;4936997;29;19927;-65
2022/09/27 00:47:04;;;;;;;;;;;;;;;10.99;76.98;97071.22;4936741;29;19929;-65
2022/09/27 00:49:35;;;;;;;;;;;;;;;10.99;76.94;97070.41;4938113;29;19923;-65
2022/09/27 00:52:04;;;;;;;;;;;;;;;10.97;76.92;97069.81;4938125;29;19930;-65
2022/09/27 00:54:33;;;;;;;;;;;;;;;10.94;76.90;97071.13;4937998;29;19922;-65
2022/09/27 00:57:01;;;;;;;;;;;;;;;10.95;77.03;97075.38;4936123;29;19923;-65
2022/09/27 00:59:28;;;;;;;;;;;;;;;10.94;76.87;97073.78;4936895;29;19922;-65
2022/09/27 01:01:55;;;;;;;;;;;;;;;10.95;77.21;97078.00;4936818;29;19923;-65
2022/09/27 01:04:25;;;;;;;;;;;;;;;10.95;77.15;97071.91;4937727;29;19926;-65
2022/09/27 01:06:52;;;;;;;;;;;;;;;10.94;77.02;97071.13;4937397;29;20378;-65
2022/09/27 01:09:19;;;;;;;;;;;;;;;10.95;76.93;97070.06;4937717;29;19929;-66
2022/09/27 01:11:55;;;;;;;;;;;;;;;10.96;76.98;97065.59;4937800;29;20405;-65
2022/09/27 01:14:28;;;;;;;;;;;;;;;10.95;76.85;97070.06;4936278;29;19922;-66
2022/09/27 01:16:57;;;;;;;;;;;;;;;10.91;76.93;97075.03;4936180;29;19938;-65
2022/09/27 01:19:42;;;;;;;;;;;;;;;10.91;77.01;97076.88;4936619;29;20362;-66
2022/09/27 01:22:12;;;;;;;;;;;;;;;10.90;77.50;97075.28;4937693;29;19973;-65
2022/09/27 01:24:38;;;;;;;;;;;;;;;10.87;76.94;97065.97;4953840;23;19923;-68
2022/09/27 01:27:14;;;;;;;;;;;;;;;10.86;77.39;97068.84;4936976;29;19977;-68
2022/09/27 01:30:10;;;;;;;;;;;;;;;10.87;77.23;97071.25;4936041;29;19926;-68
2022/09/27 01:32:51;;;;;;;;;;;;;;;10.89;77.62;97071.00;4935106;29;19954;-68
2022/09/27 01:35:31;;;;;;;;;;;;;;;10.88;77.14;97075.50;4935991;29;20439;-68
2022/09/27 01:38:16;;;;;;;;;;;;;;;10.88;77.49;97070.22;4935276;29;19922;-68
2022/09/27 01:40:53;;;;;;;;;;;;;;;10.86;77.55;97063.56;4920478;29;20298;-69
2022/09/27 01:43:37;;;;;;;;;;;;;;;10.84;77.44;97066.44;4935997;29;20035;-69
2022/09/27 01:46:07;;;;;;;;;;;;;;;10.84;77.60;97087.56;4935768;29;19969;-69
2022/09/27 01:49:07;;;;;;;;;;;;;;;10.84;77.38;97076.22;4935966;29;19933;-69
2022/09/27 01:51:40;;;;;;;;;;;;;;;10.81;77.34;97074.81;4937022;29;19965;-68
2022/09/27 01:54:10;;;;;;;;;;;;;;;10.81;77.30;97085.41;4935570;29;19926;-68
2022/09/27 01:56:56;;;;;;;;;;;;;;;10.81;77.41;97090.69;4935292;29;20321;-69
2022/09/27 01:59:28;;;;;;;;;;;;;;;10.81;77.75;97088.03;4935641;29;20144;-68
2022/09/27 02:02:13;;;;;;;;;;;;;;;10.84;77.82;97095.50;4935441;29;20284;-69
2022/09/27 02:05:08;;;;;;;;;;;;;;;10.82;77.93;97094.16;4928516;29;19977;-69
2022/09/27 02:07:49;;;;;;;;;;;;;;;10.80;78.13;97097.03;4935148;29;19923;-69
2022/09/27 02:10:21;;;;;;;;;;;;;;;10.79;78.48;97092.78;4935435;29;20018;-69
2022/09/27 02:12:58;;;;;;;;;;;;;;;10.81;78.31;97100.47;4937287;29;20369;-69
2022/09/27 02:15:26;;;;;;;;;;;;;;;10.82;78.80;97099.44;4936526;29;19947;-69
2022/09/27 02:18:15;;;;;;;;;;;;;;;10.81;78.88;97103.09;4936740;29;19979;-69
2022/09/27 02:20:48;;;;;;;;;;;;;;;10.80;78.83;97102.31;4935278;29;19929;-69
2022/09/27 02:23:21;;;;;;;;;;;;;;;10.80;78.53;97099.66;4934806;29;20359;-69
2022/09/27 02:25:57;;;;;;;;;;;;;;;10.77;78.76;97101.97;4935576;29;19974;-69
2022/09/27 02:28:38;;;;;;;;;;;;;;;10.77;78.62;97102.75;4934972;29;19929;-69
2022/09/27 02:31:07;;;;;;;;;;;;;;;10.74;78.71;97113.84;4934952;29;19946;-69
2022/09/27 02:33:48;;;;;;;;;;;;;;;10.71;78.70;97109.00;4934752;29;20384;-69
2022/09/27 02:36:14;;;;;;;;;;;;;;;10.70;78.60;97112.69;4934263;29;19922;-68
2022/09/27 02:38:42;;;;;;;;;;;;;;;10.69;78.95;97110.25;4934916;29;20450;-69
2022/09/27 02:41:16;;;;;;;;;;;;;;;10.70;78.60;97119.81;4934607;29;19947;-69
2022/09/27 02:43:44;;;;;;;;;;;;;;;10.68;78.64;97122.69;4933824;29;19926;-69
2022/09/27 02:46:30;;;;;;;;;;;;;;;10.64;78.93;97114.41;4934097;29;19926;-66
2022/09/27 02:49:24;;;;;;;;;;;;;;;10.61;78.69;97125.47;4934689;29;19930;-67
2022/09/27 02:52:09;;;;;;;;;;;;;;;10.56;78.69;97130.63;4920675;29;19933;-67
2022/09/27 02:54:45;;;;;;;;;;;;;;;10.56;78.95;97141.19;4934481;29;19961;-67
2022/09/27 02:57:33;;;;;;;;;;;;;;;10.57;78.67;97136.72;4935307;29;20287;-67
2022/09/27 03:00:19;;;;;;;;;;;;;;;10.57;78.86;97145.47;4936079;29;20021;-67
2022/09/27 03:02:56;;;;;;;;;;;;;;;10.58;78.93;97144.44;4934235;29;19923;-67
2022/09/27 03:06:02;;;;;;;;;;;;;;;10.57;78.71;97149.94;4935441;29;19930;-67
2022/09/27 03:08:29;;;;;;;;;;;;;;;10.55;78.57;97155.47;4933939;29;19923;-67
2022/09/27 03:10:55;;;;;;;;;;;;;;;10.53;78.75;97154.91;4935498;29;19923;-67
2022/09/27 03:13:22;;;;;;;;;;;;;;;10.54;78.79;97153.84;4935594;29;20013;-67
2022/09/27 03:15:49;;;;;;;;;;;;;;;10.53;78.42;97154.91;4918786;29;19922;-67
2022/09/27 03:18:34;;;;;;;;;;;;;;;10.56;78.54;97156.25;4934777;29;19938;-67
2022/09/27 03:21:18;;;;;;;;;;;;;;;10.54;78.28;97159.13;4936185;29;19970;-67
2022/09/27 03:23:45;;;;;;;;;;;;;;;10.52;78.53;97163.84;4934344;29;19934;-66
2022/09/27 03:26:11;;;;;;;;;;;;;;;10.53;78.41;97176.03;4933805;29;20383;-67
2022/09/27 03:28:38;;;;;;;;;;;;;;;10.52;78.29;97169.13;4934451;29;19923;-67
2022/09/27 03:31:05;;;;;;;;;;;;;;;10.52;78.13;97177.03;4934271;29;19922;-67
2022/09/27 03:34:00;;;;;;;;;;;;;;;10.50;78.19;97176.50;4899909;29;19923;-68
2022/09/27 03:36:27;;;;;;;;;;;;;;;10.50;78.13;97180.97;4933705;29;20352;-68
2022/09/27 03:38:54;;;;;;;;;;;;;;;10.52;78.05;97184.19;4934082;29;19927;-68
2022/09/27 03:41:20;;;;;;;;;;;;;;;10.52;78.21;97181.53;4934384;29;19930;-67
2022/09/27 03:43:47;;;;;;;;;;;;;;;10.51;78.19;97180.72;4934110;29;19970;-67
2022/09/27 03:46:13;;;;;;;;;;;;;;;10.53;78.16;97181.31;4933630;29;19922;-69
2022/09/27 03:48:41;;;;;;;;;;;;;;;10.53;77.79;97185.78;4933647;29;20365;-69
2022/09/27 03:51:08;;;;;;;;;;;;;;;10.52;78.07;97181.53;4933938;29;20450;-66
2022/09/27 03:53:34;;;;;;;;;;;;;;;10.52;78.07;97184.19;4918042;29;19930;-67
2022/09/27 03:56:01;;;;;;;;;;;;;;;10.51;77.84;97187.84;4936536;29;19954;-68
2022/09/27 03:58:28;;;;;;;;;;;;;;;10.48;77.55;97202.31;4937279;29;19942;-68
2022/09/27 04:03:37;;;;;;;;;;;;;;;10.41;77.69;97204.31;4912857;29;19951;-68
2022/09/27 04:06:12;;;;;;;;;;;;;;;10.38;77.40;97215.31;4900545;29;19923;-68
2022/09/27 04:08:42;;;;;;;;;;;;;;;10.34;77.59;97214.16;4900044;29;19955;-68
2022/09/27 04:11:09;;;;;;;;;;;;;;;10.32;77.71;97208.28;4915409;29;20471;-68
2022/09/27 04:13:38;;;;;;;;;;;;;;;10.32;77.56;97213.59;4900196;29;19975;-68
2022/09/27 04:16:06;;;;;;;;;;;;;;;10.30;77.69;97210.38;4899628;29;20011;-68
2022/09/27 04:19:09;;;;;;;;;;;;;;;10.29;77.62;97209.56;4861340;29;19931;-68
2022/09/27 04:21:49;;;;;;;;;;;;;;;10.30;77.55;97213.81;4896569;29;19962;-68
2022/09/27 04:24:16;;;;;;;;;;;;;;;10.32;77.51;97211.75;4899497;29;19923;-68
2022/09/27 04:26:55;;;;;;;;;;;;;;;10.32;77.49;97219.66;4898987;29;19979;-68
2022/09/27 04:29:24;;;;;;;;;;;;;;;10.29;77.09;97216.69;4899402;29;19923;-68
2022/09/27 04:31:53;;;;;;;;;;;;;;;10.26;77.15;97212.66;4899292;29;19934;-68
2022/09/27 04:37:43;;;;;;;;;;;;;;;10.22;77.30;97205.41;4899488;29;19971;-68
2022/09/27 04:40:10;;;;;;;;;;;;;;;10.21;76.78;97211.72;4899782;29;19928;-68
2022/09/27 04:42:36;;;;;;;;;;;;;;;10.21;76.94;97219.66;4899215;29;19923;-68
2022/09/27 04:45:04;;;;;;;;;;;;;;;10.19;77.20;97225.16;4899285;29;19991;-68
2022/09/27 04:47:31;;;;;;;;;;;;;;;10.21;77.06;97224.94;4898591;29;19923;-68
2022/09/27 04:49:58;;;;;;;;;;;;;;;10.21;76.82;97224.94;4899061;29;20383;-68
2022/09/27 04:52:24;;;;;;;;;;;;;;;10.21;77.17;97230.22;4899369;29;19923;-69
2022/09/27 04:54:51;;;;;;;;;;;;;;;10.18;77.09;97223.53;4899536;29;19923;-68
2022/09/27 04:57:18;;;;;;;;;;;;;;;10.17;77.04;97225.38;4898799;29;19946;-69
2022/09/27 04:59:44;;;;;;;;;;;;;;;10.21;77.02;97233.66;4900366;29;20383;-69
2022/09/27 05:02:12;;;;;;;;;;;;;;;10.24;76.88;97230.53;4898583;29;20002;-69
2022/09/27 05:04:58;;;;;;;;;;;;;;;10.23;76.96;97226.28;4898744;29;20280;-68
2022/09/27 05:07:28;;;;;;;;;;;;;;;10.25;76.85;97239.31;4897026;29;20018;-69
2022/09/27 05:10:02;;;;;;;;;;;;;;;10.23;76.80;97247.41;4898647;29;19958;-69
2022/09/27 05:12:29;;;;;;;;;;;;;;;10.22;77.10;97250.31;4898424;29;19923;-69
2022/09/27 05:14:58;;;;;;;;;;;;;;;10.21;76.84;97238.94;4899313;29;19923;-68
2022/09/27 05:17:44;;;;;;;;;;;;;;;10.22;77.23;97252.94;4900003;29;19997;-68
2022/09/27 05:20:36;;;;;;;;;;;;;;;10.22;77.12;97252.94;4899553;29;19933;-69
2022/09/27 05:23:11;;;;;;;;;;;;;;;10.22;76.83;97255.59;4898467;29;19931;-68
2022/09/27 05:25:37;;;;;;;;;;;;;;;10.20;76.52;97261.06;4898688;29;19923;-68
2022/09/27 05:28:04;;;;;;;;;;;;;;;10.20;76.63;97270.84;4897759;29;19924;-69
2022/09/27 05:30:30;;;;;;;;;;;;;;;10.20;76.64;97269.00;4898846;29;20398;-68
2022/09/27 05:33:07;;;;;;;;;;;;;;;10.22;76.63;97277.50;4898241;29;19930;-68
2022/09/27 05:35:43;;;;;;;;;;;;;;;10.23;76.55;97279.13;4899768;29;19924;-68
2022/09/27 05:38:11;;;;;;;;;;;;;;;10.23;76.68;97280.94;4898000;29;19923;-68
2022/09/27 05:40:41;;;;;;;;;;;;;;;10.21;76.24;97281.19;4898225;29;19950;-68
2022/09/27 05:43:10;;;;;;;;;;;;;;;10.21;76.41;97285.66;4898291;29;19923;-68
2022/09/27 05:45:36;;;;;;;;;;;;;;;10.19;76.35;97296.44;4898075;29;19924;-69
2022/09/27 05:48:04;;;;;;;;;;;;;;;10.17;76.48;97291.41;4898788;29;19923;-68
2022/09/27 05:50:37;;;;;;;;;;;;;;;10.15;76.58;97290.81;4899217;29;20299;-69
2022/09/27 05:53:04;;;;;;;;;;;;;;;10.15;76.42;97296.09;4897952;29;19924;-69
2022/09/27 05:55:31;;;;;;;;;;;;;;;10.17;76.36;97295.88;4897968;29;20018;-69
2022/09/27 05:57:59;;;;;;;;;;;;;;;10.16;76.39;97300.34;4897399;29;19923;-68
2022/09/27 06:00:36;;;;;;;;;;;;;;;10.15;76.38;97311.94;4898015;29;20375;-68
2022/09/27 06:03:13;;;;;;;;;;;;;;;10.15;76.29;97306.66;4898119;29;20018;-68
2022/09/27 06:06:00;;;;;;;;;;;;;;;10.17;75.99;97306.44;4898803;29;19930;-67
2022/09/27 06:08:40;;;;;;;;;;;;;;;10.19;76.02;97307.00;4898549;29;20367;-68
2022/09/27 06:11:11;;;;;;;;;;;;;;;10.22;76.27;97300.47;4898118;29;20046;-69
2022/09/27 06:13:38;;;;;;;;;;;;;;;10.23;75.82;97308.16;4897812;29;20042;-68
2022/09/27 06:16:05;;;;;;;;;;;;;;;10.23;75.64;97302.06;4897667;29;20410;-68
2022/09/27 06:18:34;;;;;;;;;;;;;;;10.22;75.15;97300.47;4897315;29;19931;-67
2022/09/27 06:21:01;;;;;;;;;;;;;;;10.22;75.54;97311.03;4898684;29;19927;-68
2022/09/27 06:23:28;;;;;;;;;;;;;;;10.24;75.15;97309.75;4897426;29;19930;-67
2022/09/27 06:25:59;;;;;;;;;;;;;;;10.27;75.37;97319.13;4897464;29;19930;-68
2022/09/27 06:28:46;;;;;;;;;;;;;;;10.30;74.94;97319.47;4898044;29;19946;-68
2022/09/27 06:31:13;;;;;;;;;;;;;;;10.29;74.73;97320.50;4897363;29;20034;-68
2022/09/27 06:33:47;;;;;;;;;;;;;;;10.27;74.84;97313.84;4897408;29;19923;-68
2022/09/27 06:36:13;;;;;;;;;;;;;;;10.27;74.96;97324.41;4896719;29;19935;-66
2022/09/27 06:38:48;;;;;;;;;;;;;;;10.28;74.66;97326.78;4897052;29;20320;-66
2022/09/27 06:41:29;;;;;;;;;;;;;;;10.28;74.56;97326.78;4897271;29;19927;-69
2022/09/27 06:44:13;;;;;;;;;;;;;;;10.25;74.45;97329.91;4897201;29;19923;-68
2022/09/27 06:46:45;;;;;;;;;;;;;;;10.26;74.94;97328.06;4897831;29;19980;-68
2022/09/27 06:49:11;;;;;;;;;;;;;;;10.28;74.91;97332.09;4898239;29;19923;-68
2022/09/27 06:51:39;;;;;;;;;;;;;;;10.31;74.78;97334.28;4896882;29;19973;-68
2022/09/27 06:54:06;;;;;;;;;;;;;;;10.39;74.69;97335.78;4898301;29;20300;-68
2022/09/27 06:56:32;;;;;;;;;;;;;;;10.47;74.59;97337.31;4897562;29;19979;-68
2022/09/27 07:01:44;;;;;;;;;;;;;;;10.53;74.09;97352.22;4898547;29;19924;-69
2022/09/27 07:04:17;;;;;;;;;;;;;;;10.62;73.86;97351.69;4898505;29;20376;-68
2022/09/27 07:06:58;;;;;;;;;;;;;;;10.78;73.91;97352.84;4896194;29;20010;-68
2022/09/27 07:09:29;;;;;;;;;;;;;;;10.99;73.24;97362.06;4897221;29;19923;-68
2022/09/27 07:11:56;;;;;;;;;;;;;;;11.20;72.71;97358.03;4896821;29;19923;-68
2022/09/27 07:14:24;;;;;;;;;;;;;;;11.31;72.84;97359.84;4896793;29;19932;-68
2022/09/27 07:16:52;;;;;;;;;;;;;;;11.45;72.19;97368.34;4896131;29;19923;-68
2022/09/27 07:19:18;;;;;;;;;;;;;;;11.53;71.21;97375.91;4896742;29;19931;-68
2022/09/27 07:21:49;;;;;;;;;;;;;;;11.64;71.60;97371.63;4896615;29;19930;-69
2022/09/27 07:24:15;;;;;;;;;;;;;;;11.72;71.65;97376.56;4898292;29;20051;-68
2022/09/27 07:26:42;;;;;;;;;;;;;;;11.73;71.26;97374.72;4896584;29;19923;-68
2022/09/27 07:29:10;;;;;;;;;;;;;;;11.70;71.27;97378.63;4896903;29;19973;-66
2022/09/27 07:31:37;;;;;;;;;;;;;;;11.66;71.25;97370.34;4896878;29;19927;-67
2022/09/27 07:34:04;;;;;;;;;;;;;;;11.61;70.94;97380.03;4897151;29;19962;-68
2022/09/27 07:36:31;;;;;;;;;;;;;;;11.56;70.77;97379.94;4897032;29;20328;-67
2022/09/27 07:38:58;;;;;;;;;;;;;;;11.50;71.25;97384.31;4897527;29;19931;-68
2022/09/27 07:41:25;;;;;;;;;;;;;;;11.47;71.28;97387.44;4897443;29;19959;-68
2022/09/27 07:43:53;;;;;;;;;;;;;;;11.48;71.34;97385.59;4896668;29;19975;-68
2022/09/27 07:46:20;;;;;;;;;;;;;;;11.41;71.07;97386.50;4895673;29;20380;-69
2022/09/27 07:48:54;;;;;;;;;;;;;;;11.39;71.30;97380.66;4902137;29;20014;-68
2022/09/27 07:51:43;;;;;;;;;;;;;;;11.47;71.03;97386.59;4900193;29;19951;-68
2022/09/27 07:54:39;;;;;;;;;;;;;;;11.62;71.16;97390.38;4863369;29;20013;-67
2022/09/27 07:57:29;;;;;;;;;;;;;;;11.75;70.21;97386.66;4892085;29;20011;-66
2022/09/27 07:59:57;;;;;;;;;;;;;;;11.84;70.04;97395.09;4896572;29;19929;-68
2022/09/27 08:02:24;;;;;;;;;;;;;;;11.90;69.92;97387.00;4897511;29;19942;-68
2022/09/27 08:04:52;;;;;;;;;;;;;;;12.03;69.57;97390.41;4896719;29;19950;-68
2022/09/27 08:07:18;;;;;;;;;;;;;;;12.17;68.74;97396.25;4895633;29;20391;-68
2022/09/27 08:09:49;;;;;;;;;;;;;;;12.14;68.84;97390.38;4896347;29;19930;-68
2022/09/27 08:12:16;;;;;;;;;;;;;;;12.07;68.65;97395.00;4896431;29;20268;-68
2022/09/27 08:14:43;;;;;;;;;;;;;;;12.04;68.81;97399.97;4896297;29;19955;-68
2022/09/27 08:17:14;;;;;;;;;;;;;;;12.08;68.74;97403.75;4895858;29;20025;-68
2022/09/27 08:20:05;;;;;;;;;;;;;;;12.12;68.43;97402.25;4897593;29;19923;-67
2022/09/27 08:22:50;;;;;;;;;;;;;;;12.28;68.63;97396.19;4896678;29;20288;-67
2022/09/27 08:25:24;;;;;;;;;;;;;;;12.39;67.52;97408.56;4896333;29;19923;-67
2022/09/27 08:28:13;;;;;;;;;;;;;;;12.39;67.30;97403.28;4890569;29;19930;-68
2022/09/27 08:30:43;;;;;;;;;;;;;;;12.43;67.61;97405.47;4896052;29;20348;-67
2022/09/27 08:33:11;;;;;;;;;;;;;;;12.47;66.98;97401.28;4895837;29;19924;-67
2022/09/27 08:35:37;;;;;;;;;;;;;;;12.47;66.88;97407.41;4895791;29;19927;-68
2022/09/27 08:38:07;;;;;;;;;;;;;;;12.43;66.30;97416.06;4895276;29;19958;-68
2022/09/27 08:40:54;;;;;;;;;;;;;;;12.30;66.87;97415.31;4895851;29;19923;-68
2022/09/27 08:43:28;;;;;;;;;;;;;;;12.27;67.04;97418.44;4899401;29;20301;-69
2022/09/27 08:46:07;;;;;;;;;;;;;;;12.20;67.28;97412.47;4899239;29;19923;-69
2022/09/27 08:48:37;;;;;;;;;;;;;;;12.10;67.87;97420.22;4899086;29;19951;-68
2022/09/27 08:51:04;;;;;;;;;;;;;;;12.05;67.44;97420.13;4899316;29;20452;-67
2022/09/27 08:53:38;;;;;;;;;;;;;;;11.95;67.88;97417.28;4899052;29;19927;-67
2022/09/27 08:56:07;;;;;;;;;;;;;;;11.87;68.10;97421.88;4900101;29;19971;-68
2022/09/27 08:58:41;;;;;;;;;;;;;;;11.85;68.37;97417.88;4884082;29;19975;-68
2022/09/27 09:01:15;;;;;;;;;;;;;;;11.84;68.24;97418.94;4898768;29;20069;-67
2022/09/27 09:03:57;;;;;;;;;;;;;;;11.82;67.52;97429.72;4899185;29;19970;-69
2022/09/27 09:06:41;;;;;;;;;;;;;;;11.84;67.75;97426.88;4899494;29;19923;-68
2022/09/27 09:09:08;;;;;;;;;;;;;;;12.00;67.92;97427.97;4898861;29;19924;-68
2022/09/27 09:14:25;;;;;;;;;;;;;;;12.40;66.92;97428.72;4898857;29;19930;-67
2022/09/27 09:17:12;;;;;;;;;;;;;;;12.60;66.37;97425.63;4897982;29;19934;-67
2022/09/27 09:19:59;;;;;;;;;;;;;;;12.76;66.32;97425.91;4895074;29;19924;-66
2022/09/27 09:22:52;;;;;;;;;;;;;;;12.82;65.81;97431.06;4898573;29;19995;-69
2022/09/27 09:25:27;;;;;;;;;;;;;;;12.77;65.30;97424.84;4898526;29;19923;-68
2022/09/27 09:28:10;;;;;;;;;;;;;;;12.74;65.45;97426.16;4929456;29;20018;-68
2022/09/27 09:30:49;;;;;;;;;;;;;;;12.78;65.45;97427.28;4898470;29;20372;-69
2022/09/27 09:33:21;;;;;;;;;;;;;;;12.84;65.21;97423.66;4930986;29;19923;-68
2022/09/27 09:36:03;;;;;;;;;;;;;;;12.92;65.09;97416.34;4898766;29;19930;-68
2022/09/27 09:38:39;;;;;;;;;;;;;;;13.00;64.95;97423.91;4929377;29;20031;-68
2022/09/27 09:41:12;;;;;;;;;;;;;;;13.06;64.69;97418.44;4898508;29;19930;-68
2022/09/27 09:43:47;;;;;;;;;;;;;;;13.11;64.23;97415.06;4899027;29;19930;-68
2022/09/27 09:46:35;;;;;;;;;;;;;;;13.19;64.60;97419.16;4897644;29;19923;-68
2022/09/27 09:49:09;;;;;;;;;;;;;;;13.23;63.98;97418.47;4898298;29;19930;-68
2022/09/27 09:51:43;;;;;;;;;;;;;;;13.30;63.37;97416.44;4913859;29;20041;-68
2022/09/27 09:54:18;;;;;;;;;;;;;;;13.30;63.96;97405.81;4897385;29;19923;-68
2022/09/27 09:56:47;;;;;;;;;;;;;;;13.33;63.92;97409.84;4928814;29;20010;-68
2022/09/27 09:59:22;;;;;;;;;;;;;;;13.38;64.04;97413.34;4913452;29;19971;-68
2022/09/27 10:01:54;;;;;;;;;;;;;;;13.41;63.46;97409.41;4913745;29;19994;-68
2022/09/27 10:04:26;;;;;;;;;;;;;;;13.35;63.45;97405.09;4897838;29;19924;-68
2022/09/27 10:06:57;;;;;;;;;;;;;;;13.24;63.00;97412.09;4897269;29;19923;-68
2022/09/27 10:09:27;;;;;;;;;;;;;;;13.12;63.28;97406.06;4907002;29;19924;-68
2022/09/27 10:12:12;;;;;;;;;;;;;;;13.05;63.75;97405.41;4889346;29;20058;-68
2022/09/27 10:14:44;;;;;;;;;;;;;;;13.13;63.75;97405.00;4919456;29;19935;-68
2022/09/27 10:17:13;;;;;;;;;;;;;;;13.27;63.25;97395.72;4889471;29;20391;-68
2022/09/27 10:19:40;;;;;;;;;;;;;;;13.38;62.51;97393.97;4916997;29;20428;-68
2022/09/27 10:22:15;;;;;;;;;;;;;;;13.43;62.43;97398.53;4878742;29;19924;-68
2022/09/27 10:25:00;;;;;;;;;;;;;;;13.39;62.38;97390.28;4879129;29;20377;-68
2022/09/27 10:27:56;;;;;;;;;;;;;;;13.39;62.75;97385.00;4878205;29;20411;-68
2022/09/27 10:30:31;;;;;;;;;;;;;;;13.33;62.31;97391.25;4878763;29;19930;-68
2022/09/27 10:33:06;;;;;;;;;;;;;;;13.19;62.50;97382.03;4885478;29;20395;-68
2022/09/27 10:35:44;;;;;;;;;;;;;;;13.05;62.34;97382.34;4900319;29;19923;-68
2022/09/27 10:38:19;;;;;;;;;;;;;;;12.94;62.16;97382.41;4883096;29;19931;-67
2022/09/27 10:40:46;;;;;;;;;;;;;;;12.86;62.09;97379.16;4878764;29;20269;-68
2022/09/27 10:43:33;;;;;;;;;;;;;;;12.79;62.20;97378.50;4879081;29;19924;-68
2022/09/27 10:46:24;;;;;;;;;;;;;;;12.64;62.22;97392.31;4878153;29;19924;-67
2022/09/27 10:49:12;;;;;;;;;;;;;;;12.58;62.26;97374.72;4878472;29;19930;-67
2022/09/27 10:51:39;;;;;;;;;;;;;;;12.59;61.91;97380.81;4878196;29;19968;-69
2022/09/27 10:54:17;;;;;;;;;;;;;;;12.77;61.70;97379.78;4878466;29;19975;-68
2022/09/27 10:56:43;;;;;;;;;;;;;;;13.19;61.83;97371.41;4878407;29;19924;-68
2022/09/27 10:59:16;;;;;;;;;;;;;;;13.74;61.84;97373.19;4878432;29;19976;-68
2022/09/27 11:01:44;;;;;;;;;;;;;;;14.15;60.92;97358.50;4878616;29;19928;-67
2022/09/27 11:05:00;;;;;;;;;;;;;;;14.22;59.46;97353.81;4867632;29;19935;-67
2022/09/27 11:07:27;;;;;;;;;;;;;;;14.13;57.90;97358.78;4877659;29;19930;-67
2022/09/27 11:10:21;;;;;;;;;;;;;;;14.17;58.20;97352.97;4878060;29;19963;-67
2022/09/27 11:13:04;;;;;;;;;;;;;;;14.40;57.98;97349.97;4878707;29;20376;-68
2022/09/27 11:15:36;;;;;;;;;;;;;;;14.45;57.53;97355.38;4891970;29;19973;-68
2022/09/27 11:18:30;;;;;;;;;;;;;;;14.41;57.28;97342.78;4912508;29;19923;-68
2022/09/27 11:21:13;;;;;;;;;;;;;;;14.48;56.65;97354.03;4896308;29;19952;-68
2022/09/27 11:23:58;;;;;;;;;;;;;;;14.58;56.73;97340.88;4912824;29;19930;-67
2022/09/27 11:26:30;;;;;;;;;;;;;;;14.63;56.59;97345.41;4896733;29;20323;-68
2022/09/27 11:29:02;;;;;;;;;;;;;;;14.62;56.24;97334.00;4913728;29;19931;-67
2022/09/27 11:32:08;;;;;;;;;;;;;;;14.58;56.18;97332.91;4898491;29;20021;-68
2022/09/27 11:34:37;;;;;;;;;;;;;;;14.47;56.65;97341.81;4896903;29;19953;-68
2022/09/27 11:37:11;;;;;;;;;;;;;;;14.39;56.37;97335.09;4911670;29;19927;-68
2022/09/27 11:39:50;;;;;;;;;;;;;;;14.35;56.52;97326.81;4928240;29;19927;-68
2022/09/27 11:42:32;;;;;;;;;;;;;;;14.62;56.27;97326.00;4927749;29;19924;-68
2022/09/27 11:45:19;;;;;;;;;;;;;;;14.97;54.35;97322.78;4897072;29;20014;-68
2022/09/27 11:48:13;;;;;;;;;;;;;;;15.31;54.28;97314.47;4930440;29;19927;-68
2022/09/27 11:50:48;;;;;;;;;;;;;;;15.61;53.33;97319.13;4912250;29;19934;-68
2022/09/27 11:53:33;;;;;;;;;;;;;;;15.88;53.35;97305.66;4911911;29;19979;-68
2022/09/27 11:56:12;;;;;;;;;;;;;;;16.15;52.83;97310.75;4911382;29;19927;-67
2022/09/27 11:58:41;;;;;;;;;;;;;;;16.22;52.20;97305.97;4911892;29;20299;-67
2022/09/27 12:01:19;;;;;;;;;;;;;;;16.39;51.64;97304.91;4927445;29;19991;-67
2022/09/27 12:03:45;;;;;;;;;;;;;;;16.55;50.81;97293.19;4911355;29;19935;-68
2022/09/27 12:06:19;;;;;;;;;;;;;;;16.39;50.69;97299.59;4930282;29;19931;-67
2022/09/27 12:09:07;;;;;;;;;;;;;;;16.20;51.13;97296.63;4900953;29;19924;-68
2022/09/27 12:11:43;;;;;;;;;;;;;;;16.03;51.05;97297.66;4898655;29;19924;-68
2022/09/27 12:14:11;;;;;;;;;;;;;;;15.92;51.39;97295.25;4894381;29;19927;-68
2022/09/27 12:16:39;;;;;;;;;;;;;;;15.83;51.58;97294.97;4895051;29;19923;-68
2022/09/27 12:19:11;;;;;;;;;;;;;;;15.80;51.84;97298.97;4899897;29;20010;-68
2022/09/27 12:21:59;;;;;;;;;;;;;;;15.84;51.33;97291.25;4898319;29;20063;-68
2022/09/27 12:24:27;;;;;;;;;;;;;;;15.83;50.62;97287.75;4901165;29;19933;-68
2022/09/27 12:27:41;;;;;;;;;;;;;;;16.17;50.95;97283.84;4918795;29;19930;-67
2022/09/27 12:30:12;;;;;;;;;;;;;;;16.20;51.00;97283.28;4899682;29;19930;-67
2022/09/27 12:32:58;;;;;;;;;;;;;;;16.13;50.76;97288.91;4915487;29;19923;-69
2022/09/27 12:35:29;;;;;;;;;;;;;;;16.12;51.01;97286.47;4899587;29;19924;-68
2022/09/27 12:38:16;;;;;;;;;;;;;;;16.01;50.74;97278.50;4898856;29;19923;-67
2022/09/27 12:40:46;;;;;;;;;;;;;;;15.65;50.54;97282.94;4899101;29;20363;-67
2022/09/27 12:43:24;;;;;;;;;;;;;;;15.31;51.35;97290.50;4914860;29;19930;-67
2022/09/27 12:46:29;;;;;;;;;;;;;;;15.04;51.60;97291.44;4917295;29;19923;-67
2022/09/27 12:49:04;;;;;;;;;;;;;;;14.81;52.02;97300.59;4899430;29;19966;-67
2022/09/27 12:51:35;;;;;;;;;;;;;;;14.56;52.79;97305.75;4899128;29;20415;-66
2022/09/27 12:54:08;;;;;;;;;;;;;;;14.32;52.98;97308.69;4914486;29;19923;-67
2022/09/27 12:56:59;;;;;;;;;;;;;;;14.11;53.94;97305.06;4930230;29;19924;-68
2022/09/27 12:59:34;;;;;;;;;;;;;;;13.96;54.29;97310.25;4914100;29;19924;-68
2022/09/27 13:02:13;;;;;;;;;;;;;;;13.80;54.23;97297.88;4881011;29;19924;-67
2022/09/27 13:04:39;;;;;;;;;;;;;;;13.66;54.74;97301.94;4895953;29;19923;-67
2022/09/27 13:07:24;;;;;;;;;;;;;;;13.58;55.00;97297.88;4927126;29;20312;-67
2022/09/27 13:09:58;;;;;;;;;;;;;;;13.54;55.29;97291.44;4899118;29;19923;-67
2022/09/27 13:12:26;;;;;;;;;;;;;;;13.57;55.46;97296.28;4930424;29;19975;-68
2022/09/27 13:14:53;;;;;;;;;;;;;;;13.67;55.72;97295.56;4898887;29;19928;-67
2022/09/27 13:17:43;;;;;;;;;;;;;;;13.83;55.65;97297.34;4929843;29;19923;-67
2022/09/27 13:20:38;;;;;;;;;;;;;;;14.06;55.43;97289.06;4898829;29;19927;-67
2022/09/27 13:23:17;;;;;;;;;;;;;;;14.08;55.17;97300.28;4898719;29;19931;-67
2022/09/27 13:25:50;;;;;;;;;;;;;;;14.06;55.00;97290.94;4930398;29;19927;-66
2022/09/27 13:28:34;;;;;;;;;;;;;;;14.13;55.64;97288.88;4903162;29;20372;-68
2022/09/27 13:31:06;;;;;;;;;;;;;;;14.10;55.65;97284.88;4898711;29;19923;-66
2022/09/27 13:33:33;;;;;;;;;;;;;;;14.02;55.71;97287.19;4898607;29;20370;-66
2022/09/27 13:36:21;;;;;;;;;;;;;;;13.98;55.26;97286.88;4892293;29;19923;-67